sensor_id;sensor_type;location;lat;lon;timestamp;pressure;altitude;pressure_sealevel;temperature
79148;BMP280;68562;51.600;6.524;2023-04-03T00:00:00;1028.4;;;5.6
79148;BMP280;68562;51.600;6.524;2023-04-03T00:05:00;1028.4;;;5.6
79148;BMP280;68562;51.600;6.524;2023-04-03T00:10:00;1028.4;;;5.6
79148;BMP280;68562;51.600;6.524;2023-04-03T00:15:00;1028.4;;;5.6
79148;BMP280;68562;51.600;6.524;2023-04-03T00:20:00;1028.4;;;5.5
79148;BMP280;68562;51.600;6.524;2023-04-03T00:25:00;1028.4;;;5.5
79148;BMP280;68562;51.600;6.524;2023-04-03T00:30:00;1028.5;;;5.4
79148;BMP280;68562;51.600;6.524;2023-04-03T00:35:00;1028.5;;;5.4
79148;BMP280;68562;51.600;6.524;2023-04-03T00:40:00;1028.5;;;5.4
79148;BMP280;68562;51.600;6.524;2023-04-03T00:50:00;1028.6;;;5.3
79148;BMP280;68562;51.600;6.524;2023-04-03T00:55:03;1028.6;;;5.3
79148;BMP280;68562;51.600;6.524;2023-04-03T01:00:04;1028.6;;;5.3
79148;BMP280;68562;51.600;6.524;2023-04-03T01:05:00;1028.6;;;5.3
79148;BMP280;68562;51.600;6.524;2023-04-03T01:10:02;1028.6;;;5.4
79148;BMP280;68562;51.600;6.524;2023-04-03T01:15:02;1028.6;;;5.4
79148;BMP280;68562;51.600;6.524;2023-04-03T01:20:17;1028.6;;;5.5
79148;BMP280;68562;51.600;6.524;2023-04-03T01:25:00;1028.7;;;5.5
79148;BMP280;68562;51.600;6.524;2023-04-03T01:30:00;1028.8;;;5.6
79148;BMP280;68562;51.600;6.524;2023-04-03T01:35:00;1028.8;;;5.6
79148;BMP280;68562;51.600;6.524;2023-04-03T01:40:00;1028.8;;;5.6
79148;BMP280;68562;51.600;6.524;2023-04-03T01:45:00;1028.9;;;5.6
79148;BMP280;68562;51.600;6.524;2023-04-03T01:50:00;1028.9;;;5.6
79148;BMP280;68562;51.600;6.524;2023-04-03T01:55:00;1028.9;;;5.6
79148;BMP280;68562;51.600;6.524;2023-04-03T02:00:00;1028.9;;;5.6
79148;BMP280;68562;51.600;6.524;2023-04-03T02:05:00;1028.9;;;5.6
79148;BMP280;68562;51.600;6.524;2023-04-03T02:10:00;1029.0;;;5.6
79148;BMP280;68562;51.600;6.524;2023-04-03T02:15:00;1029.1;;;5.6
79148;BMP280;68562;51.600;6.524;2023-04-03T02:20:00;1029.0;;;5.5
79148;BMP280;68562;51.600;6.524;2023-04-03T02:25:00;1028.9;;;5.5
79148;BMP280;68562;51.600;6.524;2023-04-03T02:30:00;1029.0;;;5.5
79148;BMP280;68562;51.600;6.524;2023-04-03T02:35:00;1029.0;;;5.4
79148;BMP280;68562;51.600;6.524;2023-04-03T02:40:00;1029.0;;;5.4
79148;BMP280;68562;51.600;6.524;2023-04-03T02:45:00;1029.0;;;5.3
79148;BMP280;68562;51.600;6.524;2023-04-03T02:50:00;1029.0;;;5.3
79148;BMP280;68562;51.600;6.524;2023-04-03T02:55:00;1029.1;;;5.3
79148;BMP280;68562;51.600;6.524;2023-04-03T03:00:00;1029.0;;;5.3
79148;BMP280;68562;51.600;6.524;2023-04-03T03:05:00;1029.1;;;5.2
79148;BMP280;68562;51.600;6.524;2023-04-03T03:10:00;1029.1;;;5.2
79148;BMP280;68562;51.600;6.524;2023-04-03T03:15:00;1029.1;;;5.2
79148;BMP280;68562;51.600;6.524;2023-04-03T03:20:00;1029.1;;;5.2
79148;BMP280;68562;51.600;6.524;2023-04-03T03:25:00;1029.2;;;5.1
79148;BMP280;68562;51.600;6.524;2023-04-03T03:30:00;1029.1;;;5.1
79148;BMP280;68562;51.600;6.524;2023-04-03T03:35:00;1029.1;;;5.1
79148;BMP280;68562;51.600;6.524;2023-04-03T03:40:00;1029.2;;;5.1
79148;BMP280;68562;51.600;6.524;2023-04-03T03:45:00;1029.1;;;5.0
79148;BMP280;68562;51.600;6.524;2023-04-03T03:50:00;1029.2;;;5.0
79148;BMP280;68562;51.600;6.524;2023-04-03T03:55:00;1029.2;;;5.0
79148;BMP280;68562;51.600;6.524;2023-04-03T04:00:00;1029.3;;;4.9
79148;BMP280;68562;51.600;6.524;2023-04-03T04:05:00;1029.2;;;4.9
79148;BMP280;68562;51.600;6.524;2023-04-03T04:10:00;1029.3;;;4.9
79148;BMP280;68562;51.600;6.524;2023-04-03T04:15:00;1029.3;;;4.9
79148;BMP280;68562;51.600;6.524;2023-04-03T04:20:00;1029.4;;;4.9
79148;BMP280;68562;51.600;6.524;2023-04-03T04:25:00;1029.4;;;4.9
79148;BMP280;68562;51.600;6.524;2023-04-03T04:30:00;1029.4;;;4.8
79148;BMP280;68562;51.600;6.524;2023-04-03T04:35:00;1029.5;;;4.8
79148;BMP280;68562;51.600;6.524;2023-04-03T04:40:00;1029.5;;;4.8
79148;BMP280;68562;51.600;6.524;2023-04-03T04:45:00;1029.5;;;4.7
79148;BMP280;68562;51.600;6.524;2023-04-03T04:50:00;1029.6;;;4.7
79148;BMP280;68562;51.600;6.524;2023-04-03T04:55:00;1029.7;;;4.7
79148;BMP280;68562;51.600;6.524;2023-04-03T05:00:00;1029.6;;;4.6
79148;BMP280;68562;51.600;6.524;2023-04-03T05:05:00;1029.7;;;4.7
79148;BMP280;68562;51.600;6.524;2023-04-03T05:10:00;1029.7;;;4.6
79148;BMP280;68562;51.600;6.524;2023-04-03T05:15:00;1029.7;;;4.6
79148;BMP280;68562;51.600;6.524;2023-04-03T05:20:00;1029.7;;;4.6
79148;BMP280;68562;51.600;6.524;2023-04-03T05:25:00;1029.7;;;4.6
79148;BMP280;68562;51.600;6.524;2023-04-03T05:30:00;1029.8;;;4.5
79148;BMP280;68562;51.600;6.524;2023-04-03T05:35:00;1029.9;;;4.5
79148;BMP280;68562;51.600;6.524;2023-04-03T05:40:00;1029.9;;;4.5
79148;BMP280;68562;51.600;6.524;2023-04-03T05:45:00;1029.9;;;4.5
79148;BMP280;68562;51.600;6.524;2023-04-03T05:50:00;1030.0;;;4.5
79148;BMP280;68562;51.600;6.524;2023-04-03T05:55:00;1030.0;;;4.5
79148;BMP280;68562;51.600;6.524;2023-04-03T06:00:03;1030.1;;;4.6
79148;BMP280;68562;51.600;6.524;2023-04-03T06:05:00;1030.1;;;4.7
79148;BMP280;68562;51.600;6.524;2023-04-03T06:10:00;1030.1;;;4.7
79148;BMP280;68562;51.600;6.524;2023-04-03T06:15:00;1030.1;;;4.8
79148;BMP280;68562;51.600;6.524;2023-04-03T06:20:00;1030.1;;;4.9
79148;BMP280;68562;51.600;6.524;2023-04-03T06:25:00;1030.2;;;5.1
79148;BMP280;68562;51.600;6.524;2023-04-03T06:30:00;1030.2;;;5.3
79148;BMP280;68562;51.600;6.524;2023-04-03T06:35:00;1030.2;;;5.6
79148;BMP280;68562;51.600;6.524;2023-04-03T06:40:00;1030.2;;;6.0
79148;BMP280;68562;51.600;6.524;2023-04-03T06:45:00;1030.3;;;6.4
79148;BMP280;68562;51.600;6.524;2023-04-03T06:50:00;1030.3;;;6.8
79148;BMP280;68562;51.600;6.524;2023-04-03T06:55:00;1030.4;;;7.2
79148;BMP280;68562;51.600;6.524;2023-04-03T07:00:00;1030.4;;;7.7
79148;BMP280;68562;51.600;6.524;2023-04-03T07:05:00;1030.5;;;8.1
79148;BMP280;68562;51.600;6.524;2023-04-03T07:10:00;1030.5;;;8.5
79148;BMP280;68562;51.600;6.524;2023-04-03T07:15:00;1030.4;;;8.9
79148;BMP280;68562;51.600;6.524;2023-04-03T07:20:00;1030.5;;;9.4
79148;BMP280;68562;51.600;6.524;2023-04-03T07:25:00;1030.5;;;9.9
79148;BMP280;68562;51.600;6.524;2023-04-03T07:30:00;1030.7;;;10.5
79148;BMP280;68562;51.600;6.524;2023-04-03T07:35:00;1030.6;;;11.0
79148;BMP280;68562;51.600;6.524;2023-04-03T07:40:00;1030.6;;;11.4
79148;BMP280;68562;51.600;6.524;2023-04-03T07:45:00;1030.7;;;12.0
79148;BMP280;68562;51.600;6.524;2023-04-03T07:50:00;1030.7;;;12.6
79148;BMP280;68562;51.600;6.524;2023-04-03T07:55:00;1030.8;;;13.2
79148;BMP280;68562;51.600;6.524;2023-04-03T08:00:00;1030.8;;;13.7
79148;BMP280;68562;51.600;6.524;2023-04-03T08:05:00;1030.8;;;14.2
79148;BMP280;68562;51.600;6.524;2023-04-03T08:10:00;1030.8;;;14.7
79148;BMP280;68562;51.600;6.524;2023-04-03T08:15:00;1030.8;;;15.1
79148;BMP280;68562;51.600;6.524;2023-04-03T08:20:00;1030.8;;;15.5
79148;BMP280;68562;51.600;6.524;2023-04-03T08:25:00;1030.7;;;15.9
79148;BMP280;68562;51.600;6.524;2023-04-03T08:30:00;1030.8;;;16.4
79148;BMP280;68562;51.600;6.524;2023-04-03T08:35:02;1030.8;;;16.9
79148;BMP280;68562;51.600;6.524;2023-04-03T08:40:00;1030.8;;;17.4
79148;BMP280;68562;51.600;6.524;2023-04-03T08:45:05;1030.8;;;17.7
79148;BMP280;68562;51.600;6.524;2023-04-03T08:50:02;1030.9;;;18.2
79148;BMP280;68562;51.600;6.524;2023-04-03T08:55:01;1030.8;;;18.6
79148;BMP280;68562;51.600;6.524;2023-04-03T09:00:09;1030.8;;;19.0
79148;BMP280;68562;51.600;6.524;2023-04-03T09:05:05;1030.8;;;19.2
79148;BMP280;68562;51.600;6.524;2023-04-03T09:10:00;1030.8;;;19.3
79148;BMP280;68562;51.600;6.524;2023-04-03T09:15:03;1030.8;;;19.6
79148;BMP280;68562;51.600;6.524;2023-04-03T09:20:06;1030.9;;;20.0
79148;BMP280;68562;51.600;6.524;2023-04-03T09:25:04;1030.9;;;20.4
79148;BMP280;68562;51.600;6.524;2023-04-03T09:30:00;1030.8;;;20.6
79148;BMP280;68562;51.600;6.524;2023-04-03T09:35:03;1030.9;;;20.7
79148;BMP280;68562;51.600;6.524;2023-04-03T09:40:00;1030.8;;;20.9
79148;BMP280;68562;51.600;6.524;2023-04-03T09:45:02;1030.7;;;21.1
79148;BMP280;68562;51.600;6.524;2023-04-03T09:50:19;1030.9;;;21.3
79148;BMP280;68562;51.600;6.524;2023-04-03T09:55:06;1030.9;;;21.6
79148;BMP280;68562;51.600;6.524;2023-04-03T10:00:01;1030.8;;;21.9
79148;BMP280;68562;51.600;6.524;2023-04-03T10:05:00;1030.8;;;22.4
79148;BMP280;68562;51.600;6.524;2023-04-03T10:10:03;1030.8;;;22.8
79148;BMP280;68562;51.600;6.524;2023-04-03T10:15:00;1030.6;;;23.0
79148;BMP280;68562;51.600;6.524;2023-04-03T10:20:02;1030.6;;;23.0
79148;BMP280;68562;51.600;6.524;2023-04-03T10:25:04;1030.5;;;22.9
79148;BMP280;68562;51.600;6.524;2023-04-03T10:30:05;1030.5;;;22.8
79148;BMP280;68562;51.600;6.524;2023-04-03T10:35:07;1030.5;;;22.8
79148;BMP280;68562;51.600;6.524;2023-04-03T10:40:02;1030.4;;;22.6
79148;BMP280;68562;51.600;6.524;2023-04-03T10:45:14;1030.5;;;22.5
79148;BMP280;68562;51.600;6.524;2023-04-03T10:50:07;1030.3;;;22.1
79148;BMP280;68562;51.600;6.524;2023-04-03T10:55:09;1030.3;;;22.2
79148;BMP280;68562;51.600;6.524;2023-04-03T11:00:03;1030.5;;;22.2
79148;BMP280;68562;51.600;6.524;2023-04-03T11:05:02;1030.2;;;21.9
79148;BMP280;68562;51.600;6.524;2023-04-03T11:10:02;1030.2;;;21.6
79148;BMP280;68562;51.600;6.524;2023-04-03T11:15:01;1030.1;;;21.5
79148;BMP280;68562;51.600;6.524;2023-04-03T11:20:05;1030.1;;;21.0
79148;BMP280;68562;51.600;6.524;2023-04-03T11:25:04;1030.2;;;20.9
79148;BMP280;68562;51.600;6.524;2023-04-03T11:30:01;1030.0;;;20.9
79148;BMP280;68562;51.600;6.524;2023-04-03T11:35:01;1030.1;;;21.1
79148;BMP280;68562;51.600;6.524;2023-04-03T11:40:02;1030.0;;;21.4
79148;BMP280;68562;51.600;6.524;2023-04-03T11:50:03;1029.9;;;22.2
79148;BMP280;68562;51.600;6.524;2023-04-03T11:55:00;1029.9;;;22.5
79148;BMP280;68562;51.600;6.524;2023-04-03T12:00:01;1029.9;;;22.7
79148;BMP280;68562;51.600;6.524;2023-04-03T12:10:00;1029.9;;;23.6
79148;BMP280;68562;51.600;6.524;2023-04-03T12:15:18;1029.7;;;23.7
79148;BMP280;68562;51.600;6.524;2023-04-03T12:20:00;1029.8;;;24.0
79148;BMP280;68562;51.600;6.524;2023-04-03T12:30:07;1029.6;;;25.0
79148;BMP280;68562;51.600;6.524;2023-04-03T12:35:10;1029.5;;;25.4
79148;BMP280;68562;51.600;6.524;2023-04-03T12:40:07;1029.4;;;25.8
79148;BMP280;68562;51.600;6.524;2023-04-03T12:45:05;1029.3;;;25.8
79148;BMP280;68562;51.600;6.524;2023-04-03T12:50:01;1029.3;;;26.0
79148;BMP280;68562;51.600;6.524;2023-04-03T12:55:00;1029.3;;;26.2
79148;BMP280;68562;51.600;6.524;2023-04-03T13:05:06;1029.2;;;26.7
79148;BMP280;68562;51.600;6.524;2023-04-03T13:10:03;1029.1;;;26.8
79148;BMP280;68562;51.600;6.524;2023-04-03T13:15:11;1029.1;;;26.7
79148;BMP280;68562;51.600;6.524;2023-04-03T13:20:12;1029.1;;;26.4
79148;BMP280;68562;51.600;6.524;2023-04-03T13:25:08;1029.0;;;26.5
79148;BMP280;68562;51.600;6.524;2023-04-03T13:30:02;1029.0;;;26.9
79148;BMP280;68562;51.600;6.524;2023-04-03T13:35:00;1029.0;;;26.8
79148;BMP280;68562;51.600;6.524;2023-04-03T13:40:03;1028.9;;;26.9
79148;BMP280;68562;51.600;6.524;2023-04-03T13:45:09;1028.9;;;27.1
79148;BMP280;68562;51.600;6.524;2023-04-03T13:50:02;1028.9;;;27.4
79148;BMP280;68562;51.600;6.524;2023-04-03T13:55:02;1028.9;;;27.6
79148;BMP280;68562;51.600;6.524;2023-04-03T14:05:02;1028.7;;;28.0
79148;BMP280;68562;51.600;6.524;2023-04-03T14:10:00;1028.6;;;28.3
79148;BMP280;68562;51.600;6.524;2023-04-03T14:15:01;1028.6;;;28.4
79148;BMP280;68562;51.600;6.524;2023-04-03T14:20:00;1028.6;;;28.5
79148;BMP280;68562;51.600;6.524;2023-04-03T14:25:00;1028.6;;;28.8
79148;BMP280;68562;51.600;6.524;2023-04-03T14:30:00;1028.6;;;28.9
79148;BMP280;68562;51.600;6.524;2023-04-03T14:35:00;1028.6;;;28.9
79148;BMP280;68562;51.600;6.524;2023-04-03T14:40:02;1028.5;;;29.0
79148;BMP280;68562;51.600;6.524;2023-04-03T14:45:01;1028.5;;;29.0
79148;BMP280;68562;51.600;6.524;2023-04-03T14:50:01;1028.5;;;28.9
79148;BMP280;68562;51.600;6.524;2023-04-03T14:55:01;1028.4;;;28.9
79148;BMP280;68562;51.600;6.524;2023-04-03T15:00:00;1028.3;;;28.9
79148;BMP280;68562;51.600;6.524;2023-04-03T15:05:01;1028.3;;;28.9
79148;BMP280;68562;51.600;6.524;2023-04-03T15:10:02;1028.4;;;28.7
79148;BMP280;68562;51.600;6.524;2023-04-03T15:15:00;1028.2;;;28.4
79148;BMP280;68562;51.600;6.524;2023-04-03T15:20:01;1028.3;;;28.1
79148;BMP280;68562;51.600;6.524;2023-04-03T15:25:00;1028.3;;;27.9
79148;BMP280;68562;51.600;6.524;2023-04-03T15:30:00;1028.3;;;27.6
79148;BMP280;68562;51.600;6.524;2023-04-03T15:35:00;1028.3;;;27.3
79148;BMP280;68562;51.600;6.524;2023-04-03T15:40:00;1028.3;;;26.9
79148;BMP280;68562;51.600;6.524;2023-04-03T15:45:00;1028.4;;;26.5
79148;BMP280;68562;51.600;6.524;2023-04-03T15:50:00;1028.4;;;26.3
79148;BMP280;68562;51.600;6.524;2023-04-03T15:55:00;1028.4;;;26.4
79148;BMP280;68562;51.600;6.524;2023-04-03T16:00:00;1028.4;;;26.2
79148;BMP280;68562;51.600;6.524;2023-04-03T16:05:00;1028.3;;;25.9
79148;BMP280;68562;51.600;6.524;2023-04-03T16:10:00;1028.4;;;25.4
79148;BMP280;68562;51.600;6.524;2023-04-03T16:15:00;1028.5;;;24.8
79148;BMP280;68562;51.600;6.524;2023-04-03T16:20:00;1028.4;;;24.5
79148;BMP280;68562;51.600;6.524;2023-04-03T16:25:00;1028.5;;;24.2
79148;BMP280;68562;51.600;6.524;2023-04-03T16:30:00;1028.4;;;24.0
79148;BMP280;68562;51.600;6.524;2023-04-03T16:35:00;1028.4;;;23.5
79148;BMP280;68562;51.600;6.524;2023-04-03T16:40:00;1028.4;;;23.3
79148;BMP280;68562;51.600;6.524;2023-04-03T16:45:00;1028.5;;;23.2
79148;BMP280;68562;51.600;6.524;2023-04-03T16:50:00;1028.4;;;22.9
79148;BMP280;68562;51.600;6.524;2023-04-03T16:55:00;1028.5;;;22.6
79148;BMP280;68562;51.600;6.524;2023-04-03T17:00:00;1028.5;;;22.3
79148;BMP280;68562;51.600;6.524;2023-04-03T17:05:00;1028.5;;;22.0
79148;BMP280;68562;51.600;6.524;2023-04-03T17:10:00;1028.4;;;21.6
79148;BMP280;68562;51.600;6.524;2023-04-03T17:15:00;1028.5;;;21.2
79148;BMP280;68562;51.600;6.524;2023-04-03T17:20:00;1028.5;;;20.3
79148;BMP280;68562;51.600;6.524;2023-04-03T17:25:00;1028.5;;;18.9
79148;BMP280;68562;51.600;6.524;2023-04-03T17:30:00;1028.5;;;17.5
79148;BMP280;68562;51.600;6.524;2023-04-03T17:35:00;1028.6;;;16.2
79148;BMP280;68562;51.600;6.524;2023-04-03T17:40:00;1028.6;;;15.4
79148;BMP280;68562;51.600;6.524;2023-04-03T17:45:00;1028.6;;;14.6
79148;BMP280;68562;51.600;6.524;2023-04-03T17:50:00;1028.6;;;14.0
79148;BMP280;68562;51.600;6.524;2023-04-03T17:55:00;1028.6;;;13.5
79148;BMP280;68562;51.600;6.524;2023-04-03T18:00:00;1028.7;;;13.1
79148;BMP280;68562;51.600;6.524;2023-04-03T18:05:01;1028.7;;;12.7
79148;BMP280;68562;51.600;6.524;2023-04-03T18:10:00;1028.7;;;12.4
79148;BMP280;68562;51.600;6.524;2023-04-03T18:15:01;1028.7;;;12.1
79148;BMP280;68562;51.600;6.524;2023-04-03T18:20:00;1028.6;;;11.9
79148;BMP280;68562;51.600;6.524;2023-04-03T18:25:00;1028.6;;;11.7
79148;BMP280;68562;51.600;6.524;2023-04-03T18:30:03;1028.6;;;11.5
79148;BMP280;68562;51.600;6.524;2023-04-03T18:35:00;1028.7;;;11.3
79148;BMP280;68562;51.600;6.524;2023-04-03T18:40:00;1028.7;;;11.1
79148;BMP280;68562;51.600;6.524;2023-04-03T18:45:02;1028.7;;;11.0
79148;BMP280;68562;51.600;6.524;2023-04-03T18:50:00;1028.7;;;10.9
79148;BMP280;68562;51.600;6.524;2023-04-03T18:55:00;1028.7;;;10.7
79148;BMP280;68562;51.600;6.524;2023-04-03T19:00:00;1028.7;;;10.6
79148;BMP280;68562;51.600;6.524;2023-04-03T19:05:00;1028.8;;;10.5
79148;BMP280;68562;51.600;6.524;2023-04-03T19:10:01;1028.8;;;10.3
79148;BMP280;68562;51.600;6.524;2023-04-03T19:15:00;1028.9;;;10.2
79148;BMP280;68562;51.600;6.524;2023-04-03T19:20:00;1028.9;;;10.1
79148;BMP280;68562;51.600;6.524;2023-04-03T19:25:00;1028.8;;;10.0
79148;BMP280;68562;51.600;6.524;2023-04-03T19:30:00;1028.9;;;9.9
79148;BMP280;68562;51.600;6.524;2023-04-03T19:35:00;1028.9;;;9.8
79148;BMP280;68562;51.600;6.524;2023-04-03T19:40:00;1028.9;;;9.7
79148;BMP280;68562;51.600;6.524;2023-04-03T19:45:00;1028.8;;;9.6
79148;BMP280;68562;51.600;6.524;2023-04-03T19:50:00;1028.8;;;9.5
79148;BMP280;68562;51.600;6.524;2023-04-03T19:55:00;1028.8;;;9.4
79148;BMP280;68562;51.600;6.524;2023-04-03T20:00:00;1028.8;;;9.3
79148;BMP280;68562;51.600;6.524;2023-04-03T20:05:00;1028.8;;;9.2
79148;BMP280;68562;51.600;6.524;2023-04-03T20:10:00;1028.8;;;9.2
79148;BMP280;68562;51.600;6.524;2023-04-03T20:15:00;1028.8;;;9.1
79148;BMP280;68562;51.600;6.524;2023-04-03T20:20:01;1028.8;;;9.0
79148;BMP280;68562;51.600;6.524;2023-04-03T20:25:01;1028.8;;;8.9
79148;BMP280;68562;51.600;6.524;2023-04-03T20:30:00;1028.8;;;8.8
79148;BMP280;68562;51.600;6.524;2023-04-03T20:35:00;1028.8;;;8.7
79148;BMP280;68562;51.600;6.524;2023-04-03T20:40:00;1028.8;;;8.7
79148;BMP280;68562;51.600;6.524;2023-04-03T20:45:00;1028.8;;;8.6
79148;BMP280;68562;51.600;6.524;2023-04-03T20:50:00;1028.8;;;8.5
79148;BMP280;68562;51.600;6.524;2023-04-03T20:55:00;1028.8;;;8.4
79148;BMP280;68562;51.600;6.524;2023-04-03T21:00:00;1028.8;;;8.4
79148;BMP280;68562;51.600;6.524;2023-04-03T21:05:01;1028.8;;;8.2
79148;BMP280;68562;51.600;6.524;2023-04-03T21:20:00;1028.9;;;8.0
79148;BMP280;68562;51.600;6.524;2023-04-03T21:25:00;1028.9;;;7.9
79148;BMP280;68562;51.600;6.524;2023-04-03T21:30:00;1028.9;;;7.9
79148;BMP280;68562;51.600;6.524;2023-04-03T21:35:00;1028.9;;;7.8
79148;BMP280;68562;51.600;6.524;2023-04-03T21:40:00;1028.9;;;7.7
79148;BMP280;68562;51.600;6.524;2023-04-03T21:45:00;1028.9;;;7.6
79148;BMP280;68562;51.600;6.524;2023-04-03T21:50:00;1028.9;;;7.5
79148;BMP280;68562;51.600;6.524;2023-04-03T21:55:00;1028.8;;;7.4
79148;BMP280;68562;51.600;6.524;2023-04-03T22:00:00;1028.8;;;7.3
79148;BMP280;68562;51.600;6.524;2023-04-03T22:05:00;1028.7;;;7.2
79148;BMP280;68562;51.600;6.524;2023-04-03T22:10:00;1028.7;;;7.1
79148;BMP280;68562;51.600;6.524;2023-04-03T22:15:00;1028.6;;;7.1
79148;BMP280;68562;51.600;6.524;2023-04-03T22:20:00;1028.6;;;7.0
79148;BMP280;68562;51.600;6.524;2023-04-03T22:25:00;1028.6;;;6.9
79148;BMP280;68562;51.600;6.524;2023-04-03T22:30:00;1028.6;;;6.8
79148;BMP280;68562;51.600;6.524;2023-04-03T22:35:00;1028.7;;;6.8
79148;BMP280;68562;51.600;6.524;2023-04-03T22:40:00;1028.7;;;6.7
79148;BMP280;68562;51.600;6.524;2023-04-03T22:45:00;1028.7;;;6.6
79148;BMP280;68562;51.600;6.524;2023-04-03T22:50:00;1028.7;;;6.6
79148;BMP280;68562;51.600;6.524;2023-04-03T22:55:00;1028.7;;;6.5
79148;BMP280;68562;51.600;6.524;2023-04-03T23:00:00;1028.6;;;6.4
79148;BMP280;68562;51.600;6.524;2023-04-03T23:05:00;1028.6;;;6.4
79148;BMP280;68562;51.600;6.524;2023-04-03T23:10:00;1028.6;;;6.3
79148;BMP280;68562;51.600;6.524;2023-04-03T23:15:00;1028.6;;;6.2
79148;BMP280;68562;51.600;6.524;2023-04-03T23:20:00;1028.6;;;6.2
79148;BMP280;68562;51.600;6.524;2023-04-03T23:25:00;1028.6;;;6.1
79148;BMP280;68562;51.600;6.524;2023-04-03T23:30:00;1028.6;;;6.0
79148;BMP280;68562;51.600;6.524;2023-04-03T23:35:00;1028.6;;;6.0
79148;BMP280;68562;51.600;6.524;2023-04-03T23:40:00;1028.6;;;5.9
79148;BMP280;68562;51.600;6.524;2023-04-03T23:45:00;1028.6;;;5.8
79148;BMP280;68562;51.600;6.524;2023-04-03T23:50:00;1028.6;;;5.7
79148;BMP280;68562;51.600;6.524;2023-04-03T23:55:00;1028.6;;;5.7
